Time;durP1;ratioP1;P1;durP2;ratioP2;P2;SDS_P1;SDS_P2;PMS_P1;PMS_P2;Temp;Humidity;BMP_temperature;BMP_pressure;BME280_temperature;BME280_humidity;BME280_pressure;Samples;Min_cycle;Max_cycle;Signal;HPM_P1;HPM_P2
2023/07/10 00:00:22;;;;;;;8.43;4.40;;;;;;;19.26;78.54;101971.00;5016033;28;20514;-64
2023/07/10 00:02:49;;;;;;;11.27;5.40;;;;;;;19.27;78.48;101965.41;5024340;28;20557;-64
2023/07/10 00:05:16;;;;;;;10.60;5.15;;;;;;;19.25;78.40;101972.84;5024890;28;20021;-64
2023/07/10 00:07:42;;;;;;;12.80;5.18;;;;;;;19.22;78.33;101965.19;5015482;28;20452;-64
2023/07/10 00:10:10;;;;;;;10.50;5.47;;;;;;;19.14;78.77;101960.81;5018770;28;20074;-63
2023/07/10 00:12:36;;;;;;;12.68;5.68;;;;;;;19.19;78.90;101962.88;5016843;28;20502;-64
2023/07/10 00:15:05;;;;;;;12.98;5.00;;;;;;;19.15;78.70;101967.00;5028545;28;20033;-64
2023/07/10 00:17:30;;;;;;;;;;;;;;;19.31;78.59;101971.22;5026418;28;20017;-64
2023/07/10 00:19:55;;;;;;;10.38;4.13;;;;;;;19.15;78.68;101977.78;5022973;28;19928;-64
2023/07/10 00:22:20;;;;;;;9.55;4.45;;;;;;;19.09;78.77;101973.22;5025228;28;20037;-64
2023/07/10 00:24:46;;;;;;;13.73;4.30;;;;;;;19.01;79.40;101976.88;5021211;28;20025;-64
2023/07/10 00:27:12;;;;;;;9.80;4.22;;;;;;;19.00;79.55;101975.22;5026593;28;20037;-64
2023/07/10 00:29:38;;;;;;;12.38;4.53;;;;;;;18.97;79.72;101972.91;5023259;28;20072;-64
2023/07/10 00:32:10;;;;;;;12.05;4.63;;;;;;;18.97;79.99;101969.38;5025208;28;20569;-64
2023/07/10 00:34:35;;;;;;;9.30;4.35;;;;;;;18.95;80.00;101963.38;5018312;28;20545;-64
2023/07/10 00:37:01;;;;;;;10.13;4.38;;;;;;;18.93;80.33;101968.13;5016881;28;20034;-64
2023/07/10 00:39:28;;;;;;;12.70;4.50;;;;;;;18.88;80.14;101969.56;5020370;28;20037;-64
2023/07/10 00:42:00;;;;;;;12.60;3.97;;;;;;;18.86;80.17;101960.84;5011203;28;20026;-64
2023/07/10 00:44:36;;;;;;;9.25;3.47;;;;;;;18.87;79.96;101953.59;5013620;28;20550;-64
2023/07/10 00:47:14;;;;;;;7.25;3.30;;;;;;;18.89;80.10;101965.00;5024508;28;20606;-64
2023/07/10 00:49:58;;;;;;;7.13;3.58;;;;;;;18.89;79.71;101978.47;5024038;28;20025;-64
2023/07/10 00:52:28;;;;;;;11.73;4.03;;;;;;;18.79;79.74;101986.91;5008733;28;20033;-64
2023/07/10 00:54:57;;;;;;;6.75;3.58;;;;;;;18.63;79.78;101991.72;5027957;28;20108;-64
2023/07/10 00:57:24;;;;;;;;;;;;;;;18.70;79.64;101990.75;5025783;28;20033;-64
2023/07/10 00:59:50;;;;;;;7.18;3.60;;;;;;;18.58;79.55;101984.22;5018188;28;19913;-64
2023/07/10 01:02:18;;;;;;;5.55;3.40;;;;;;;18.57;80.11;101977.19;5017802;28;20018;-64
2023/07/10 01:04:48;;;;;;;11.77;4.30;;;;;;;18.60;80.15;101976.78;5023623;28;20555;-64
2023/07/10 01:07:16;;;;;;;8.63;3.70;;;;;;;18.67;80.22;101969.63;5019170;28;20406;-64
2023/07/10 01:09:49;;;;;;;9.25;3.25;;;;;;;18.64;79.88;101956.56;5023866;28;20049;-64
2023/07/10 01:12:14;;;;;;;9.00;4.03;;;;;;;18.69;79.65;101969.41;5026086;28;20111;-64
2023/07/10 01:14:39;;;;;;;10.25;3.00;;;;;;;18.56;79.98;101975.50;5016410;28;20645;-64
2023/07/10 01:17:07;;;;;;;7.90;2.63;;;;;;;18.43;79.93;101994.22;5023362;28;20017;-64
2023/07/10 01:19:33;;;;;;;8.00;2.58;;;;;;;18.36;80.26;101990.66;5012247;28;20459;-64
2023/07/10 01:21:59;;;;;;;7.00;2.90;;;;;;;18.31;80.14;101985.03;5017886;28;20030;-64
2023/07/10 01:24:25;;;;;;;7.72;2.80;;;;;;;18.29;80.11;101987.91;5021743;28;20486;-64
2023/07/10 01:26:51;;;;;;;6.90;3.17;;;;;;;18.23;80.50;101989.53;5024058;28;20040;-64
2023/07/10 01:29:24;;;;;;;8.32;3.20;;;;;;;18.23;80.88;101983.31;5016098;28;20026;-64
2023/07/10 01:31:54;;;;;;;8.18;3.13;;;;;;;18.23;81.11;101975.25;5022283;28;20561;-64
2023/07/10 01:34:23;;;;;;;8.45;3.50;;;;;;;18.20;81.03;101980.97;5017963;28;20025;-64
2023/07/10 01:36:50;;;;;;;9.05;3.08;;;;;;;18.24;80.76;101969.66;5015357;28;20373;-64
2023/07/10 01:39:15;;;;;;;7.20;3.70;;;;;;;18.27;80.58;101966.59;5026114;28;20156;-64
2023/07/10 01:41:44;;;;;;;8.40;3.27;;;;;;;18.29;80.84;101960.19;5026351;28;20033;-64
2023/07/10 01:44:28;;;;;;;8.45;3.28;;;;;;;18.31;80.54;101948.22;5029237;28;20283;-64
2023/07/10 01:46:56;;;;;;;8.20;3.35;;;;;;;18.33;80.32;101954.22;5020593;28;20030;-64
2023/07/10 01:49:26;;;;;;;8.02;3.50;;;;;;;18.35;80.54;101975.53;5023495;28;20491;-64
2023/07/10 01:51:53;;;;;;;9.13;3.03;;;;;;;18.38;80.53;101969.78;5028870;28;20495;-64
2023/07/10 01:54:18;;;;;;;10.95;4.55;;;;;;;18.35;79.93;101975.53;5021492;28;20667;-64
2023/07/10 01:56:45;;;;;;;8.32;2.90;;;;;;;18.29;79.91;101982.53;5019266;28;20029;-64
2023/07/10 01:59:10;;;;;;;8.90;3.00;;;;;;;18.24;79.95;101968.84;5020309;28;20502;-64
2023/07/10 02:01:36;;;;;;;7.03;3.03;;;;;;;18.19;79.75;101965.88;5026158;28;20095;-64
2023/07/10 02:04:02;;;;;;;6.90;3.13;;;;;;;18.23;79.86;101964.50;5026485;28;20037;-64
2023/07/10 02:06:27;;;;;;;11.23;3.50;;;;;;;18.20;80.26;101964.84;5024880;28;20028;-64
2023/07/10 02:08:52;;;;;;;9.60;3.47;;;;;;;18.16;80.09;101953.66;5026198;28;20530;-64
2023/07/10 02:11:18;;;;;;;5.15;3.10;;;;;;;18.19;80.39;101949.75;5022460;28;20405;-63
2023/07/10 02:13:43;;;;;;;8.13;3.30;;;;;;;18.21;80.22;101953.94;5022974;28;20059;-64
2023/07/10 02:16:11;;;;;;;7.72;3.22;;;;;;;18.15;79.96;101952.00;5022674;28;20026;-64
2023/07/10 02:18:37;;;;;;;6.38;2.90;;;;;;;18.08;80.20;101953.78;5028183;28;20017;-64
2023/07/10 02:21:02;;;;;;;6.38;3.05;;;;;;;17.99;80.34;101965.72;5028375;28;20025;-64
2023/07/10 02:23:28;;;;;;;8.52;3.10;;;;;;;17.93;80.53;101970.00;5024128;28;20080;-64
2023/07/10 02:25:53;;;;;;;9.48;3.22;;;;;;;17.88;80.82;101985.00;5022486;28;20025;-64
2023/07/10 02:28:18;;;;;;;7.85;2.90;;;;;;;17.77;80.69;101989.03;5023686;28;20033;-64
2023/07/10 02:30:44;;;;;;;5.63;2.40;;;;;;;17.56;80.55;101988.97;5019572;28;20032;-64
2023/07/10 02:33:09;;;;;;;6.72;3.17;;;;;;;17.40;81.51;101992.72;5025156;28;20985;-64
2023/07/10 02:35:34;;;;;;;6.20;3.20;;;;;;;17.30;82.44;101986.78;5022832;28;20018;-64
2023/07/10 02:37:59;;;;;;;7.50;2.80;;;;;;;17.24;83.23;101976.78;5021080;28;20379;-64
2023/07/10 02:40:25;;;;;;;10.30;3.25;;;;;;;17.23;83.37;101980.50;5026289;28;20402;-64
2023/07/10 02:42:50;;;;;;;6.72;3.15;;;;;;;17.21;84.28;101991.41;5018015;28;20491;-64
2023/07/10 02:45:15;;;;;;;9.18;3.03;;;;;;;17.20;84.32;101994.28;5023508;28;20039;-64
2023/07/10 02:47:41;;;;;;;10.60;3.22;;;;;;;17.18;84.25;101988.28;5017934;28;20029;-64
2023/07/10 02:50:09;;;;;;;7.60;3.33;;;;;;;17.20;84.61;101997.81;5021279;28;20023;-64
2023/07/10 02:52:34;;;;;;;8.35;3.50;;;;;;;17.19;84.94;101995.31;5023498;28;20025;-64
2023/07/10 02:55:00;;;;;;;8.27;3.15;;;;;;;17.19;84.87;101992.63;5020093;28;20020;-64
2023/07/10 02:57:25;;;;;;;6.65;3.28;;;;;;;17.21;84.77;101988.72;5021750;28;20029;-64
2023/07/10 02:59:50;;;;;;;6.47;3.38;;;;;;;17.21;85.10;101990.59;5025646;28;20025;-64
2023/07/10 03:02:15;;;;;;;9.98;3.80;;;;;;;17.17;84.97;101992.81;5027188;28;20050;-64
2023/07/10 03:04:41;;;;;;;10.98;3.85;;;;;;;17.14;85.17;101995.88;5028543;28;20491;-64
2023/07/10 03:07:06;;;;;;;9.35;4.00;;;;;;;17.18;85.62;102005.22;5026287;28;20072;-63
2023/07/10 03:09:31;;;;;;;6.97;4.10;;;;;;;17.18;85.80;102012.44;5025858;28;20039;-64
2023/07/10 03:11:56;;;;;;;7.18;4.03;;;;;;;17.17;85.93;102002.72;5027086;28;20021;-64
2023/07/10 03:14:22;;;;;;;11.38;4.90;;;;;;;17.18;86.03;101999.00;5018211;28;20590;-64
2023/07/10 03:16:47;;;;;;;11.52;4.93;;;;;;;17.21;85.89;102004.84;5024126;28;20041;-64
2023/07/10 03:19:12;;;;;;;10.63;5.15;;;;;;;17.20;86.25;102010.41;5015727;28;20475;-63
2023/07/10 03:21:38;;;;;;;9.15;4.53;;;;;;;17.14;85.94;102013.81;5019337;28;20113;-64
2023/07/10 03:24:03;;;;;;;11.68;4.75;;;;;;;17.08;86.18;102017.25;5026521;28;20430;-64
2023/07/10 03:26:29;;;;;;;9.18;4.60;;;;;;;16.97;86.58;102022.03;5021783;28;20029;-64
2023/07/10 03:29:06;;;;;;;7.95;4.43;;;;;;;16.92;86.97;102028.97;5000835;28;20091;-64
2023/07/10 03:31:32;;;;;;;7.95;4.45;;;;;;;16.83;86.97;102027.41;5019760;28;20637;-64
2023/07/10 03:33:57;;;;;;;13.25;4.80;;;;;;;16.81;87.33;102022.22;5023698;28;20056;-64
2023/07/10 03:36:22;;;;;;;10.15;5.10;;;;;;;16.76;87.56;102027.28;5018591;28;20040;-64
2023/07/10 03:38:47;;;;;;;9.15;4.60;;;;;;;16.74;87.72;102026.63;5023475;28;20044;-64
2023/07/10 03:41:13;;;;;;;8.02;5.45;;;;;;;16.72;87.88;102026.81;5017945;28;20108;-64
2023/07/10 03:43:38;;;;;;;14.05;5.75;;;;;;;16.68;88.19;102019.31;5013191;28;20029;-64
2023/07/10 03:46:03;;;;;;;11.10;6.40;;;;;;;16.68;88.74;102014.78;5012010;28;20018;-64
2023/07/10 03:48:28;;;;;;;12.95;7.10;;;;;;;16.67;89.15;102014.97;5016556;28;20069;-64
2023/07/10 03:50:54;;;;;;;10.77;6.78;;;;;;;16.74;89.68;102023.94;5012782;28;20561;-64
2023/07/10 03:53:19;;;;;;;11.32;6.70;;;;;;;16.79;90.09;102018.06;5015453;28;20022;-64
2023/07/10 03:55:52;;;;;;;13.40;7.07;;;;;;;16.81;90.26;102034.81;5012205;28;20018;-64
2023/07/10 03:58:23;;;;;;;11.48;7.05;;;;;;;16.77;90.14;102034.34;5019372;28;20052;-64
2023/07/10 04:00:50;;;;;;;12.38;6.80;;;;;;;16.70;90.07;102036.91;5013460;28;20128;-64
2023/07/10 04:03:15;;;;;;;10.95;6.55;;;;;;;16.62;90.25;102039.63;5009037;28;20050;-64
2023/07/10 04:05:42;;;;;;;10.90;7.00;;;;;;;16.56;90.21;102042.19;5009443;28;20107;-64
2023/07/10 04:08:08;;;;;;;14.95;8.27;;;;;;;16.54;90.48;102037.03;5013914;28;20018;-64
2023/07/10 04:10:34;;;;;;;10.98;7.63;;;;;;;16.55;91.59;102049.41;5014752;28;20067;-64
2023/07/10 04:13:00;;;;;;;14.70;7.82;;;;;;;16.63;91.91;102048.50;5016518;28;20104;-64
2023/07/10 04:15:25;;;;;;;13.63;8.15;;;;;;;16.64;92.11;102055.53;5015679;28;20125;-64
2023/07/10 04:17:51;;;;;;;14.75;8.55;;;;;;;16.64;92.07;102055.53;5021780;28;20040;-63
2023/07/10 04:20:16;;;;;;;10.88;8.23;;;;;;;16.61;91.95;102061.25;5014123;28;20014;-64
2023/07/10 04:22:41;;;;;;;13.23;8.18;;;;;;;16.57;91.90;102054.59;5014168;28;20044;-64
2023/07/10 04:25:07;;;;;;;14.52;8.38;;;;;;;16.53;92.07;102055.97;5017773;28;20026;-64
2023/07/10 04:27:32;;;;;;;13.40;8.45;;;;;;;16.50;92.25;102048.28;5016062;28;20055;-64
2023/07/10 04:29:58;;;;;;;11.90;8.63;;;;;;;16.46;92.54;102049.63;5023550;28;20029;-64
2023/07/10 04:32:24;;;;;;;12.98;8.50;;;;;;;16.41;92.75;102052.88;5016731;28;20029;-64
2023/07/10 04:34:49;;;;;;;14.85;8.43;;;;;;;16.38;93.01;102046.00;5020606;28;20028;-64
2023/07/10 04:37:15;;;;;;;15.77;9.23;;;;;;;16.39;93.27;102061.09;5022150;28;20076;-64
2023/07/10 04:39:40;;;;;;;12.65;9.18;;;;;;;16.42;93.69;102058.03;5026248;28;20112;-63
2023/07/10 04:42:06;;;;;;;14.65;9.73;;;;;;;16.47;93.72;102062.03;5022197;28;20420;-64
2023/07/10 04:44:31;;;;;;;14.98;9.77;;;;;;;16.49;94.20;102050.13;5025082;28;20033;-64
2023/07/10 04:46:56;;;;;;;14.88;10.10;;;;;;;16.53;94.15;102050.59;5022060;28;20029;-64
2023/07/10 04:49:21;;;;;;;14.73;9.27;;;;;;;16.57;94.05;102062.63;5019933;28;20045;-63
2023/07/10 04:51:47;;;;;;;14.57;9.75;;;;;;;16.58;94.52;102058.94;5018162;28;20033;-64
2023/07/10 04:54:12;;;;;;;16.45;9.43;;;;;;;16.59;94.42;102063.28;5022854;28;20045;-64
2023/07/10 04:56:37;;;;;;;17.10;9.13;;;;;;;16.54;94.34;102053.13;5014428;28;20090;-64
2023/07/10 04:59:02;;;;;;;15.35;9.25;;;;;;;16.58;94.22;102062.47;5019700;28;20601;-64
2023/07/10 05:01:32;;;;;;;12.93;8.55;;;;;;;16.56;94.12;102060.97;5023251;28;20046;-64
2023/07/10 05:03:58;;;;;;;17.20;9.23;;;;;;;16.59;94.09;102064.13;5021026;28;20398;-64
2023/07/10 05:06:23;;;;;;;12.57;9.00;;;;;;;16.63;93.93;102064.59;5024424;28;20029;-64
2023/07/10 05:08:51;;;;;;;15.38;9.68;;;;;;;16.63;94.18;102070.78;5017660;28;20037;-64
2023/07/10 05:11:17;;;;;;;16.70;9.90;;;;;;;16.65;93.89;102073.28;5020780;28;20021;-64
2023/07/10 05:13:42;;;;;;;14.00;9.63;;;;;;;16.68;93.79;102079.16;5017774;28;20023;-64
2023/07/10 05:16:08;;;;;;;16.25;10.40;;;;;;;16.70;94.01;102077.13;5025448;28;20063;-64
2023/07/10 05:18:33;;;;;;;15.52;10.48;;;;;;;16.77;93.86;102076.41;5026528;28;20481;-64
2023/07/10 05:20:59;;;;;;;16.60;10.13;;;;;;;16.80;94.21;102084.94;5021933;28;20029;-63
2023/07/10 05:23:26;;;;;;;15.98;10.00;;;;;;;16.82;94.05;102085.59;5022880;28;20021;-64
2023/07/10 05:26:01;;;;;;;15.63;10.18;;;;;;;16.85;93.90;102092.44;5020202;28;20388;-64
2023/07/10 05:28:26;;;;;;;14.57;9.95;;;;;;;16.90;93.96;102079.31;5017663;28;20029;-63
2023/07/10 05:30:53;;;;;;;17.60;9.85;;;;;;;16.96;93.93;102089.31;5011785;28;20029;-63
2023/07/10 05:33:18;;;;;;;16.80;9.85;;;;;;;16.98;94.14;102089.97;5018926;28;20044;-64
2023/07/10 05:35:58;;;;;;;15.88;9.73;;;;;;;17.02;93.99;102081.38;5013796;28;20025;-63
2023/07/10 05:38:26;;;;;;;13.73;9.25;;;;;;;17.07;93.93;102085.38;5021546;28;20026;-64
2023/07/10 05:40:52;;;;;;;14.98;9.30;;;;;;;17.11;93.66;102092.03;5027861;28;20065;-64
2023/07/10 05:43:17;;;;;;;15.57;9.50;;;;;;;17.14;93.63;102080.94;5023466;28;20034;-63
2023/07/10 05:45:43;;;;;;;17.38;8.25;;;;;;;17.16;93.25;102078.91;5014429;28;20040;-64
2023/07/10 05:48:09;;;;;;;13.50;8.60;;;;;;;17.21;93.42;102077.31;5017581;28;20112;-64
2023/07/10 05:50:34;;;;;;;15.07;8.18;;;;;;;17.27;92.85;102083.81;5015698;28;20057;-64
2023/07/10 05:53:00;;;;;;;16.65;8.10;;;;;;;17.37;92.97;102079.00;5011939;28;20101;-64
2023/07/10 05:55:25;;;;;;;13.23;7.75;;;;;;;17.41;92.78;102083.00;5013465;28;20080;-64
2023/07/10 05:57:50;;;;;;;14.43;8.07;;;;;;;17.47;92.62;102081.41;5011416;28;20476;-64
2023/07/10 06:00:16;;;;;;;14.05;8.27;;;;;;;17.53;92.41;102088.72;5028574;28;20040;-64
2023/07/10 06:02:41;;;;;;;15.50;8.40;;;;;;;17.58;92.22;102089.00;5028439;28;20075;-63
2023/07/10 06:05:07;;;;;;;12.65;7.93;;;;;;;17.58;91.60;102086.31;5018194;28;20021;-63
2023/07/10 06:07:32;;;;;;;14.68;8.25;;;;;;;17.64;91.48;102082.91;5011394;28;20026;-64
2023/07/10 06:09:58;;;;;;;17.33;8.68;;;;;;;17.74;91.72;102082.63;5014541;28;20028;-64
2023/07/10 06:12:23;;;;;;;10.50;7.75;;;;;;;17.82;91.40;102086.03;5023360;28;20495;-64
2023/07/10 06:14:48;;;;;;;12.02;6.75;;;;;;;17.85;90.97;102092.88;5011055;28;20041;-63
2023/07/10 06:17:14;;;;;;;15.43;6.97;;;;;;;17.87;90.10;102089.00;5027897;28;20017;-63
2023/07/10 06:19:39;;;;;;;12.65;6.50;;;;;;;17.92;90.04;102091.94;5026026;28;20047;-63
2023/07/10 06:22:10;;;;;;;13.23;7.10;;;;;;;17.98;89.30;102094.91;5026673;28;20018;-64
2023/07/10 06:24:35;;;;;;;11.57;6.60;;;;;;;18.04;89.58;102096.84;5022825;28;20438;-64
2023/07/10 06:27:02;;;;;;;12.27;6.10;;;;;;;18.08;88.75;102098.97;5019059;28;20049;-63
2023/07/10 06:29:27;;;;;;;13.45;6.07;;;;;;;18.15;88.69;102101.72;5022100;28;20053;-64
2023/07/10 06:31:52;;;;;;;10.32;6.45;;;;;;;18.24;88.43;102097.91;5021389;28;20068;-64
2023/07/10 06:34:17;;;;;;;11.50;6.53;;;;;;;18.35;88.73;102097.41;5021208;28;20810;-64
2023/07/10 06:36:43;;;;;;;10.43;6.43;;;;;;;18.36;87.84;102098.22;5021045;28;20033;-64
2023/07/10 06:39:08;;;;;;;13.23;6.68;;;;;;;18.42;87.35;102110.91;5020503;28;20411;-64
2023/07/10 06:41:33;;;;;;;13.10;6.30;;;;;;;18.44;87.25;102098.09;5021900;28;20032;-64
2023/07/10 06:43:58;;;;;;;13.93;6.32;;;;;;;18.55;86.60;102108.38;5018234;28;20397;-64
2023/07/10 06:46:25;;;;;;;12.98;6.03;;;;;;;18.59;85.71;102106.97;5014742;28;20053;-64
2023/07/10 06:48:50;;;;;;;12.18;5.28;;;;;;;18.67;85.00;102120.31;5019777;28;20040;-64
2023/07/10 06:51:15;;;;;;;11.63;4.28;;;;;;;18.76;84.27;102112.91;5010325;28;20022;-65
2023/07/10 06:53:41;;;;;;;11.82;4.47;;;;;;;18.77;82.58;102114.59;5025898;28;20082;-63
2023/07/10 06:56:06;;;;;;;11.45;4.20;;;;;;;18.81;82.13;102114.03;5021955;28;20018;-64
2023/07/10 06:58:33;;;;;;;13.32;4.53;;;;;;;18.85;82.16;102120.69;5015001;28;20059;-64
2023/07/10 07:00:59;;;;;;;11.10;3.80;;;;;;;18.92;81.58;102122.59;5026834;28;20487;-64
2023/07/10 07:03:24;;;;;;;11.75;3.97;;;;;;;19.02;81.08;102134.69;5011923;28;20054;-64
2023/07/10 07:05:50;;;;;;;10.63;3.75;;;;;;;19.04;80.44;102121.88;5019168;28;20372;-63
2023/07/10 07:08:17;;;;;;;13.25;3.92;;;;;;;19.12;80.46;102120.91;5026677;28;20025;-64
2023/07/10 07:10:44;;;;;;;9.13;3.78;;;;;;;19.12;79.56;102119.06;5026939;28;20030;-63
2023/07/10 07:13:10;;;;;;;11.20;4.35;;;;;;;19.22;79.71;102123.25;5022804;28;20090;-64
2023/07/10 07:15:36;;;;;;;8.95;3.70;;;;;;;19.25;79.72;102120.16;5022376;28;20029;-64
2023/07/10 07:18:03;;;;;;;9.77;3.97;;;;;;;19.40;79.38;102123.59;5023147;28;20438;-63
2023/07/10 07:20:28;;;;;;;10.20;3.58;;;;;;;19.44;78.62;102131.09;5022118;28;20022;-64
2023/07/10 07:22:53;;;;;;;12.70;4.13;;;;;;;19.49;78.41;102119.69;5016990;28;20071;-63
2023/07/10 07:25:19;;;;;;;11.05;3.35;;;;;;;19.48;77.31;102116.19;5026053;28;20033;-63
2023/07/10 07:27:44;;;;;;;9.63;3.60;;;;;;;19.60;77.39;102121.84;5017460;28;20418;-64
2023/07/10 07:30:10;;;;;;;8.73;3.63;;;;;;;19.73;77.19;102131.91;5028271;28;20017;-64
2023/07/10 07:32:35;;;;;;;12.52;3.83;;;;;;;19.70;76.50;102135.00;5020142;28;20063;-64
2023/07/10 07:35:00;;;;;;;12.52;3.70;;;;;;;19.69;76.44;102130.63;5018685;28;20076;-64
2023/07/10 07:37:25;;;;;;;8.70;3.58;;;;;;;19.70;76.11;102129.59;5013331;28;20040;-63
2023/07/10 07:39:51;;;;;;;9.32;3.45;;;;;;;19.73;76.07;102131.91;5013485;28;20079;-64
2023/07/10 07:42:16;;;;;;;11.15;3.47;;;;;;;19.76;75.35;102137.72;5019985;28;20022;-64
2023/07/10 07:44:42;;;;;;;9.30;3.22;;;;;;;19.78;75.34;102129.44;5021927;28;20029;-64
2023/07/10 07:47:07;;;;;;;10.38;3.40;;;;;;;19.82;75.16;102133.38;5021345;28;20475;-64
2023/07/10 07:49:33;;;;;;;11.00;3.65;;;;;;;19.84;74.99;102130.50;5020318;28;20146;-64
2023/07/10 07:51:58;;;;;;;9.77;3.00;;;;;;;19.91;75.54;102137.56;5020894;28;20650;-64
2023/07/10 07:54:23;;;;;;;14.35;3.97;;;;;;;19.97;74.90;102134.09;5017119;28;20040;-64
2023/07/10 07:56:49;;;;;;;10.35;3.08;;;;;;;20.07;74.15;102136.41;5017885;28;20955;-63
2023/07/10 07:59:16;;;;;;;9.60;3.15;;;;;;;20.17;73.96;102133.31;5015266;28;20037;-64
2023/07/10 08:01:41;;;;;;;9.50;2.83;;;;;;;20.24;73.58;102142.25;5017974;28;20049;-64
2023/07/10 08:04:06;;;;;;;10.98;3.58;;;;;;;20.32;72.81;102139.41;5009869;28;20107;-64
2023/07/10 08:06:33;;;;;;;10.32;3.10;;;;;;;20.33;72.11;102130.25;5015012;28;20390;-63
2023/07/10 08:08:58;;;;;;;12.77;3.45;;;;;;;20.39;72.59;102126.75;5022362;28;20025;-64
2023/07/10 08:11:24;;;;;;;10.25;3.03;;;;;;;20.53;72.80;102125.78;5020329;28;20045;-64
2023/07/10 08:13:50;;;;;;;8.40;3.17;;;;;;;20.52;71.25;102132.19;5022375;28;20564;-63
2023/07/10 08:16:16;;;;;;;9.30;2.78;;;;;;;20.48;70.65;102122.84;5023966;28;20129;-64
2023/07/10 08:18:42;;;;;;;11.48;3.40;;;;;;;20.58;70.85;102130.56;5018973;28;20030;-64
2023/07/10 08:21:11;;;;;;;7.55;2.50;;;;;;;20.76;70.97;102135.34;5015215;28;20048;-64
2023/07/10 08:23:37;;;;;;;10.32;2.80;;;;;;;20.83;70.35;102120.00;5021387;28;20025;-64
2023/07/10 08:26:03;;;;;;;8.38;2.90;;;;;;;20.93;69.87;102121.25;5016051;28;20070;-64
2023/07/10 08:28:28;;;;;;;7.80;2.72;;;;;;;20.96;69.51;102120.00;5014121;28;20079;-65
2023/07/10 08:30:53;;;;;;;39.78;4.32;;;;;;;21.10;69.76;102121.63;5009334;28;21219;-64
2023/07/10 08:33:19;;;;;;;12.93;2.47;;;;;;;21.20;69.24;102126.63;5016278;28;20051;-65
2023/07/10 08:35:53;;;;;;;7.72;2.20;;;;;;;21.32;68.18;102122.28;5017013;28;20040;-63
2023/07/10 08:38:19;;;;;;;9.38;2.67;;;;;;;21.45;66.77;102119.56;5012913;28;20046;-64
2023/07/10 08:40:44;;;;;;;8.35;2.10;;;;;;;21.59;66.24;102123.88;5020653;28;20044;-64
2023/07/10 08:43:39;;;;;;;7.72;2.30;;;;;;;21.66;65.44;102129.25;5023500;28;20025;-65
2023/07/10 08:46:12;;;;;;;8.10;2.60;;;;;;;21.73;64.92;102135.50;5015991;28;20524;-64
2023/07/10 08:48:41;;;;;;;9.20;2.40;;;;;;;21.70;64.69;102129.69;5024203;28;20048;-64
2023/07/10 08:51:21;;;;;;;8.93;2.75;;;;;;;21.66;64.38;102118.44;5019425;28;20506;-64
2023/07/10 08:54:09;;;;;;;8.60;2.50;;;;;;;21.83;63.78;102130.47;5015829;28;20536;-64
2023/07/10 08:56:45;;;;;;;7.55;2.30;;;;;;;21.91;63.44;102130.22;5019437;28;20037;-65
2023/07/10 08:59:25;;;;;;;7.05;2.45;;;;;;;21.99;62.94;102125.63;5023888;28;20585;-65
2023/07/10 09:01:51;;;;;;;9.10;2.08;;;;;;;22.10;62.69;102124.97;5025542;28;20033;-65
2023/07/10 09:04:19;;;;;;;9.23;2.15;;;;;;;22.21;62.18;102127.81;5016478;28;20107;-65
2023/07/10 09:06:59;;;;;;;6.65;2.60;;;;;;;22.26;61.31;102124.44;5016751;28;20163;-64
2023/07/10 09:09:53;;;;;;;8.88;1.95;;;;;;;22.28;60.56;102126.97;5014459;28;20086;-65
2023/07/10 09:12:32;;;;;;;8.07;1.88;;;;;;;22.45;60.31;102133.50;5013964;28;20100;-65
2023/07/10 09:15:02;;;;;;;7.80;2.42;;;;;;;22.43;58.97;102135.63;5018563;28;20112;-64
2023/07/10 09:17:46;;;;;;;8.05;2.20;;;;;;;22.50;59.18;102134.50;5023858;28;20021;-65
2023/07/10 09:20:12;;;;;;;7.30;2.30;;;;;;;22.62;59.28;102131.13;5020121;28;20047;-64
2023/07/10 09:22:54;;;;;;;7.05;2.20;;;;;;;22.67;58.28;102137.53;5024316;28;20723;-64
2023/07/10 09:25:21;;;;;;;11.02;2.25;;;;;;;22.74;58.34;102129.34;5017766;28;20494;-65
2023/07/10 09:27:47;;;;;;;6.25;2.05;;;;;;;22.79;58.05;102137.66;5015785;28;20422;-65
2023/07/10 09:30:27;;;;;;;10.02;2.22;;;;;;;22.88;57.42;102141.81;5009662;28;20491;-65
2023/07/10 09:33:00;;;;;;;6.82;1.90;;;;;;;22.94;57.38;102138.19;5019068;28;20033;-65
2023/07/10 09:35:25;;;;;;;8.20;2.10;;;;;;;23.14;56.49;102144.28;5015109;28;20398;-65
2023/07/10 09:37:51;;;;;;;11.00;2.30;;;;;;;23.09;56.01;102130.56;5011149;28;20029;-65
2023/07/10 09:40:35;;;;;;;6.93;2.25;;;;;;;23.15;54.85;102129.69;5020324;28;20025;-64
2023/07/10 09:43:03;;;;;;;11.52;2.50;;;;;;;23.23;55.16;102138.56;5016251;28;20614;-65
2023/07/10 09:45:41;;;;;;;10.07;2.20;;;;;;;23.25;54.32;102123.75;5014635;28;20040;-65
2023/07/10 09:48:24;;;;;;;8.60;1.80;;;;;;;23.25;52.52;102125.63;5022057;28;20120;-65
2023/07/10 09:50:51;;;;;;;5.20;1.88;;;;;;;23.23;53.06;102130.44;5019656;28;20022;-64
2023/07/10 09:53:54;;;;;;;10.60;1.80;;;;;;;23.37;52.55;102138.22;5015090;28;20104;-65
2023/07/10 09:56:19;;;;;;;6.47;2.00;;;;;;;23.38;52.78;102139.03;4981401;28;20113;-64
2023/07/10 09:58:46;;;;;;;5.63;2.03;;;;;;;23.40;52.59;102129.63;5003061;28;20121;-65
2023/07/10 10:01:11;;;;;;;7.18;1.67;;;;;;;23.47;51.71;102129.59;5014340;28;20765;-64
2023/07/10 10:03:41;;;;;;;6.80;2.00;;;;;;;23.58;51.93;102144.28;5017209;28;20105;-64
2023/07/10 10:06:19;;;;;;;9.50;2.45;;;;;;;23.65;51.69;102145.03;5012736;28;20048;-65
2023/07/10 10:08:46;;;;;;;7.03;1.97;;;;;;;23.70;51.93;102140.59;5019612;28;20025;-65
2023/07/10 10:11:12;;;;;;;6.35;1.70;;;;;;;23.82;50.31;102135.25;5025149;28;20276;-65
2023/07/10 10:13:42;;;;;;;9.10;2.00;;;;;;;23.90;50.69;102139.53;5019082;28;20105;-65
2023/07/10 10:16:15;;;;;;;7.13;1.90;;;;;;;23.89;50.52;102127.03;5015637;28;20364;-65
2023/07/10 10:18:50;;;;;;;6.95;2.03;;;;;;;23.77;50.45;102127.81;5015975;28;20028;-65
2023/07/10 10:21:19;;;;;;;9.35;2.45;;;;;;;23.85;50.62;102126.66;5024770;28;20053;-64
2023/07/10 10:23:47;;;;;;;8.75;2.42;;;;;;;23.88;50.08;102137.06;5026477;28;20546;-65
2023/07/10 10:26:27;;;;;;;8.75;1.98;;;;;;;23.88;50.01;102137.06;5022059;28;20502;-65
2023/07/10 10:29:27;;;;;;;8.93;2.17;;;;;;;24.03;50.39;102142.09;5019347;28;20026;-65
2023/07/10 10:32:16;;;;;;;8.70;1.92;;;;;;;23.97;50.21;102127.53;5023517;28;20458;-65
2023/07/10 10:35:10;;;;;;;9.07;2.22;;;;;;;24.04;50.24;102117.44;5024475;28;20045;-65
2023/07/10 10:37:59;;;;;;;6.13;1.80;;;;;;;24.31;50.82;102117.94;5028878;28;20025;-65
2023/07/10 10:40:49;;;;;;;8.23;2.10;;;;;;;24.56;50.46;102125.09;5006832;28;20064;-65
2023/07/10 10:43:36;;;;;;;5.35;1.55;;;;;;;24.77;49.81;102121.00;5017643;28;20399;-65
2023/07/10 10:46:12;;;;;;;5.28;1.60;;;;;;;24.79;48.73;102137.91;5017179;28;20014;-65
2023/07/10 10:49:16;;;;;;;7.65;2.00;;;;;;;24.81;48.41;102123.00;5015203;28;20030;-64
2023/07/10 10:51:47;;;;;;;7.38;2.00;;;;;;;24.72;48.83;102124.44;5027029;28;20437;-64
2023/07/10 10:54:34;;;;;;;6.00;2.00;;;;;;;24.86;47.57;102123.13;5019930;28;20029;-64
2023/07/10 10:57:11;;;;;;;6.82;1.80;;;;;;;25.20;49.14;102128.88;5013495;28;20053;-65
2023/07/10 11:00:14;;;;;;;4.65;1.40;;;;;;;25.18;46.62;102139.16;5021620;28;20088;-65
2023/07/10 11:03:05;;;;;;;6.30;1.73;;;;;;;24.97;46.95;102154.94;5023570;28;20033;-65
2023/07/10 11:05:45;;;;;;;10.30;2.08;;;;;;;24.97;47.45;102144.09;5024217;28;20021;-65
2023/07/10 11:08:20;;;;;;;6.40;1.90;;;;;;;25.16;47.52;102139.41;5022912;28;20032;-65
2023/07/10 11:10:47;;;;;;;8.73;1.83;;;;;;;25.32;47.42;102137.84;5026237;28;20021;-65
2023/07/10 11:13:30;;;;;;;6.05;1.80;;;;;;;25.26;46.07;102138.81;5020748;28;20025;-65
2023/07/10 11:15:56;;;;;;;7.15;1.73;;;;;;;25.15;46.12;102128.75;5025424;28;20041;-65
2023/07/10 11:18:22;;;;;;;5.10;1.70;;;;;;;25.13;46.52;102117.28;5023830;28;20028;-65
2023/07/10 11:20:48;;;;;;;6.70;2.00;;;;;;;25.25;46.36;102124.38;5025708;28;20014;-65
2023/07/10 11:23:33;;;;;;;7.55;1.88;;;;;;;25.28;45.67;102125.81;5027842;28;20463;-65
2023/07/10 11:26:07;;;;;;;7.75;1.90;;;;;;;25.20;46.35;102115.28;5022953;28;20037;-65
2023/07/10 11:28:33;;;;;;;9.13;2.17;;;;;;;25.28;46.85;102113.03;5019524;28;20091;-65